Time;durP1;ratioP1;P1;durP2;ratioP2;P2;SDS_P1;SDS_P2;PMS_P1;PMS_P2;Temp;Humidity;BMP_temperature;BMP_pressure;BME280_temperature;BME280_humidity;BME280_pressure;Samples;Min_cycle;Max_cycle;Signal;HPM_P1;HPM_P2
2023/10/01 00:00:09;;;;;;;;;12.50;10.00;;;;;16.60;100.00;99612.00;6241121;28;96335;-62
2023/10/01 00:03:14;;;;;;;;;14.00;12.00;;;;;16.60;100.00;99617.47;6239763;28;96454;-62
2023/10/01 00:06:19;;;;;;;;;11.60;10.60;;;;;16.58;100.00;99616.81;6241406;28;96765;-62
2023/10/01 00:09:24;;;;;;;;;13.00;12.00;;;;;16.54;100.00;99619.22;6239977;28;96610;-63
2023/10/01 00:12:27;;;;;;;;;12.00;12.00;;;;;16.51;100.00;99614.28;6222359;28;96778;-62
2023/10/01 00:15:30;;;;;;;;;14.50;12.00;;;;;16.43;100.00;99615.47;6240708;28;96585;-62
2023/10/01 00:18:35;;;;;;;;;13.00;12.00;;;;;16.39;100.00;99608.03;6222102;28;96632;-62
2023/10/01 00:21:40;;;;;;;;;14.60;13.40;;;;;16.35;100.00;99615.84;6240939;28;96632;-62
2023/10/01 00:24:43;;;;;;;;;12.75;12.00;;;;;16.33;100.00;99612.53;6240317;28;96305;-62
2023/10/01 00:27:46;;;;;;;;;14.00;12.00;;;;;16.25;100.00;99599.31;6240789;28;96283;-62
2023/10/01 00:30:49;;;;;;;;;11.80;10.00;;;;;16.22;100.00;99605.25;6222504;28;96599;-62
2023/10/01 00:33:52;;;;;;;;;12.50;12.00;;;;;16.12;100.00;99594.16;6239119;28;96329;-62
2023/10/01 00:36:57;;;;;;;;;17.00;12.00;;;;;16.12;100.00;99594.16;6221059;28;96395;-62
2023/10/01 00:40:00;;;;;;;;;15.40;12.00;;;;;16.08;100.00;99600.31;6238358;28;96420;-62
2023/10/01 00:43:05;;;;;;;;;16.00;13.00;;;;;16.01;100.00;99595.00;6238652;28;96398;-62
2023/10/01 00:46:08;;;;;;;;;13.00;12.00;;;;;15.93;100.00;99596.19;6219918;28;97485;-62
2023/10/01 00:49:13;;;;;;;;;12.20;11.00;;;;;15.90;100.00;99590.41;6238684;28;96546;-62
2023/10/01 00:52:19;;;;;;;;;12.00;11.00;;;;;15.83;100.00;99597.88;6219664;27;96708;-62
2023/10/01 00:55:22;;;;;;;;;9.00;7.60;;;;;15.83;100.00;99592.44;6220837;28;96473;-62
2023/10/01 00:58:26;;;;;;;;;12.60;11.60;;;;;15.80;100.00;99598.34;6219863;28;96762;-62
2023/10/01 01:01:29;;;;;;;;;11.20;10.20;;;;;15.73;100.00;99590.31;6220481;28;96731;-62
2023/10/01 01:04:36;;;;;;;;;13.00;12.00;;;;;15.67;100.00;99593.16;6203505;28;96740;-62
2023/10/01 01:07:41;;;;;;;;;11.00;10.00;;;;;15.64;100.00;99582.78;6239042;28;96941;-62
2023/10/01 01:10:44;;;;;;;;;11.50;11.00;;;;;15.62;100.00;99584.88;6238496;28;96340;-61
2023/10/01 01:13:49;;;;;;;;;16.00;15.00;;;;;15.58;100.00;99587.25;6220179;28;96935;-62
2023/10/01 01:16:53;;;;;;;;;16.00;13.00;;;;;15.57;100.00;99586.44;6209330;28;96387;-62
2023/10/01 01:19:56;;;;;;;;;14.40;12.60;;;;;15.57;100.00;99586.44;6212118;28;96904;-62
2023/10/01 01:23:01;;;;;;;;;12.40;11.40;;;;;15.54;100.00;99595.03;6212876;28;96525;-62
2023/10/01 01:26:07;;;;;;;;;13.50;12.50;;;;;15.54;100.00;99589.59;6234686;28;96228;-62
2023/10/01 01:29:18;;;;;;;;;11.25;11.25;;;;;15.53;100.00;99587.16;6219800;28;97067;-62
2023/10/01 01:32:21;;;;;;;;;15.60;14.00;;;;;15.55;100.00;99587.72;6169415;28;1385296;-62
2023/10/01 01:35:28;;;;;;;;;12.00;12.00;;;;;15.52;100.00;99580.88;6238983;28;96288;-62
2023/10/01 01:38:33;;;;;;;;;13.40;12.20;;;;;15.52;100.00;99572.72;6254527;27;96358;-63
2023/10/01 01:41:42;;;;;;;;;11.00;11.00;;;;;15.53;100.00;99579.81;6239239;28;96386;-62
2023/10/01 01:44:48;;;;;;;;;12.75;11.00;;;;;15.51;100.00;99576.50;6219672;28;96265;-62
2023/10/01 01:47:51;;;;;;;;;9.00;9.00;;;;;15.51;100.00;99589.25;6239189;28;96279;-62
2023/10/01 01:50:55;;;;;;;;;9.20;9.20;;;;;15.55;100.00;99585.81;6220423;28;96275;-62
2023/10/01 01:54:00;;;;;;;;;12.60;11.60;;;;;15.55;100.00;99591.25;6238295;27;96262;-62
2023/10/01 01:57:03;;;;;;;;;11.50;11.00;;;;;15.56;100.00;99584.78;6203833;28;96983;-62
2023/10/01 02:00:19;;;;;;;;;12.00;11.00;;;;;15.58;100.00;99598.13;6220206;28;96335;-62
2023/10/01 02:03:22;;;;;;;;;11.80;11.00;;;;;15.58;100.00;99587.25;6221072;28;96359;-62
2023/10/01 02:06:28;;;;;;;;;12.00;12.00;;;;;15.48;100.00;99589.72;6237417;28;96550;-62
2023/10/01 02:09:34;;;;;;;;;11.50;10.50;;;;;15.48;100.00;99592.44;6220893;28;96319;-62
2023/10/01 02:12:37;;;;;;;;;14.60;13.00;;;;;15.46;100.00;99598.09;6203975;28;96862;-62
2023/10/01 02:15:41;;;;;;;;;10.00;9.00;;;;;15.42;100.00;99591.47;6219520;28;98773;-62
2023/10/01 02:18:55;;;;;;;;;10.00;10.00;;;;;15.36;100.00;99589.69;6238311;28;96578;-62
2023/10/01 02:22:03;;;;;;;;;13.00;12.00;;;;;15.36;100.00;99589.69;6238234;28;96811;-62
2023/10/01 02:25:10;;;;;;;;;12.20;10.60;;;;;15.35;100.00;99592.63;6220235;28;96349;-62
2023/10/01 02:28:15;;;;;;;;;16.80;15.00;;;;;15.37;100.00;99579.66;6238567;28;96323;-62
2023/10/01 02:31:18;;;;;;;;;13.00;11.00;;;;;15.40;100.00;99579.16;6211843;28;96504;-62
2023/10/01 02:34:22;;;;;;;;;12.00;12.00;;;;;15.43;100.00;99570.56;6233633;28;96898;-62
2023/10/01 02:37:29;;;;;;;;;12.00;11.00;;;;;15.40;100.00;99573.75;6235202;28;96890;-62
2023/10/01 02:40:37;;;;;;;;;13.00;9.00;;;;;15.37;100.00;99568.78;6202832;28;97296;-62
2023/10/01 02:43:42;;;;;;;;;14.00;11.80;;;;;15.31;100.00;99556.97;6238257;28;96351;-62
2023/10/01 02:46:50;;;;;;;;;11.40;11.40;;;;;15.28;100.00;99553.91;6237779;28;96410;-62
2023/10/01 02:49:59;;;;;;;;;13.20;13.20;;;;;15.23;100.00;99554.63;6237474;28;96415;-62
2023/10/01 02:53:02;;;;;;;;;13.75;12.00;;;;;15.21;100.00;99558.63;6236832;27;96662;-62
2023/10/01 02:56:12;;;;;;;;;13.00;12.80;;;;;15.18;100.00;99557.22;6236424;28;99217;-62
2023/10/01 02:59:18;;;;;;;;;10.00;8.75;;;;;15.23;100.00;99561.94;6237984;28;97012;-62
2023/10/01 03:02:24;;;;;;;;;11.80;11.00;;;;;15.30;100.00;99568.06;6220396;28;96379;-62
2023/10/01 03:05:30;;;;;;;;;11.25;11.00;;;;;15.33;100.00;99562.19;6237806;27;96618;-62
2023/10/01 03:09:00;;;;;;;;;13.00;12.00;;;;;15.38;100.00;99573.16;6236737;28;96961;-62
2023/10/01 03:15:29;;;;;;;;;10.50;10.00;;;;;15.33;100.00;99575.75;6253025;27;96295;-62
2023/10/01 03:18:35;;;;;;;;;11.60;11.00;;;;;15.39;100.00;99581.09;6237491;28;96954;-62
2023/10/01 03:24:58;;;;;;;;;10.00;9.60;;;;;15.39;100.00;99578.38;6216816;28;97012;-62
2023/10/01 03:28:07;;;;;;;;;12.60;12.60;;;;;15.33;100.00;99556.75;6218203;28;96476;-62
2023/10/01 03:31:12;;;;;;;;;11.00;9.00;;;;;15.48;100.00;99584.28;6219784;28;96400;-62
2023/10/01 03:34:28;;;;;;;;;8.00;8.00;;;;;15.49;100.00;99588.66;6248742;27;96654;-62
2023/10/01 03:37:38;;;;;;;;;10.00;8.60;;;;;15.44;100.00;99585.81;6237376;28;96313;-62
2023/10/01 03:44:08;;;;;;;;;9.60;9.60;;;;;15.36;100.00;99578.81;6236769;28;96865;-62
2023/10/01 03:47:12;;;;;;;;;7.00;7.00;;;;;15.35;100.00;99577.16;6218535;28;96686;-62
2023/10/01 03:50:15;;;;;;;;;9.00;8.00;;;;;15.35;100.00;99574.44;6237287;28;96388;-62
2023/10/01 03:53:19;;;;;;;;;9.50;8.50;;;;;15.36;100.00;99581.53;6217655;28;96341;-62
2023/10/01 03:56:22;;;;;;;;;11.60;9.60;;;;;15.29;100.00;99575.41;6228510;28;96730;-62
2023/10/01 03:59:32;;;;;;;;;9.00;8.00;;;;;15.28;100.00;99581.91;6236702;28;96448;-62
2023/10/01 04:02:46;;;;;;;;;12.00;11.00;;;;;15.32;100.00;99576.81;6236904;28;96304;-62
2023/10/01 04:05:56;;;;;;;;;10.60;10.00;;;;;15.35;100.00;99571.72;6218311;28;97779;-62
2023/10/01 04:09:06;;;;;;;;;11.00;10.00;;;;;15.34;100.00;99563.84;6217753;28;96810;-62
2023/10/01 04:12:19;;;;;;;;;11.00;10.60;;;;;15.34;100.00;99556.53;6235905;28;96668;-62
2023/10/01 04:15:29;;;;;;;;;10.00;10.00;;;;;15.31;100.00;99554.25;6236638;27;96450;-62
2023/10/01 04:18:34;;;;;;;;;13.00;13.00;;;;;15.30;100.00;99566.19;6220608;28;96452;-62
2023/10/01 04:21:37;;;;;;;;;10.25;9.25;;;;;15.28;100.00;99575.63;6240358;28;96402;-62
2023/10/01 04:24:42;;;;;;;;;10.40;9.60;;;;;15.22;100.00;99571.97;6220072;28;97433;-62
2023/10/01 04:27:46;;;;;;;;;10.00;10.00;;;;;15.18;100.00;99590.63;6221013;28;98893;-62
2023/10/01 04:30:51;;;;;;;;;10.40;9.00;;;;;15.17;100.00;99580.00;6239840;28;96393;-62
2023/10/01 04:33:55;;;;;;;;;10.40;9.40;;;;;15.20;100.00;99568.66;6222722;28;97392;-62
2023/10/01 04:36:59;;;;;;;;;11.80;11.00;;;;;15.18;100.00;99571.63;6241823;27;96978;-62
2023/10/01 04:40:03;;;;;;;;;10.00;10.00;;;;;15.13;100.00;99584.25;6239075;28;96424;-62
2023/10/01 04:43:10;;;;;;;;;8.75;8.00;;;;;15.14;100.00;99569.63;6219990;28;99139;-63
2023/10/01 04:46:16;;;;;;;;;12.00;11.00;;;;;15.13;100.00;99568.78;6220307;28;96717;-62
2023/10/01 04:49:39;;;;;;;;;10.00;10.00;;;;;15.09;100.00;99577.63;6221270;28;96803;-62
2023/10/01 04:52:47;;;;;;;;;11.50;10.50;;;;;15.08;100.00;99579.53;6211137;27;98606;-62
2023/10/01 04:56:05;;;;;;;;;11.60;11.60;;;;;15.00;100.00;99579.03;6218819;28;96917;-62
2023/10/01 04:59:10;;;;;;;;;8.00;7.40;;;;;15.00;100.00;99592.63;6227584;28;96391;-63
2023/10/01 05:02:21;;;;;;;;;12.00;11.00;;;;;15.02;100.00;99598.63;6222021;27;96906;-63
2023/10/01 05:05:26;;;;;;;;;11.00;10.75;;;;;15.01;100.00;99603.22;6243847;27;96757;-62
2023/10/01 05:08:38;;;;;;;;;13.00;11.60;;;;;15.05;100.00;99601.69;6258940;27;97105;-62
2023/10/01 05:11:42;;;;;;;;;10.00;9.00;;;;;15.00;100.00;99607.00;6229136;28;96728;-62
2023/10/01 05:14:59;;;;;;;;;12.00;11.40;;;;;15.08;100.00;99597.69;6196605;28;97139;-62
2023/10/01 05:18:05;;;;;;;;;11.00;10.60;;;;;15.13;100.00;99611.41;6230337;28;96785;-62
2023/10/01 05:21:12;;;;;;;;;11.00;10.80;;;;;15.15;100.00;99610.09;6225418;28;98207;-62
2023/10/01 05:24:34;;;;;;;;;8.60;8.40;;;;;15.08;100.00;99606.69;6239887;28;96425;-62
2023/10/01 05:27:40;;;;;;;;;11.40;11.00;;;;;14.97;100.00;99590.34;6238135;28;96350;-62
2023/10/01 05:30:43;;;;;;;;;11.60;10.00;;;;;15.00;100.00;99600.75;6219086;28;96844;-62
2023/10/01 05:33:52;;;;;;;;;12.75;11.00;;;;;15.05;100.00;99609.84;6238516;28;96368;-62
2023/10/01 05:37:08;;;;;;;;;12.80;11.80;;;;;15.05;100.00;99601.69;6220649;28;96753;-62
2023/10/01 05:40:15;;;;;;;;;9.50;9.00;;;;;14.96;100.00;99597.66;6221471;28;96856;-61
2023/10/01 05:43:19;;;;;;;;;12.00;11.00;;;;;14.95;100.00;99603.34;6220932;28;96863;-61
2023/10/01 05:46:23;;;;;;;;;12.00;11.50;;;;;14.99;100.00;99594.50;6236811;28;96654;-61
2023/10/01 05:49:28;;;;;;;;;9.80;7.80;;;;;14.97;100.00;99593.06;6238379;28;96820;-61
2023/10/01 05:52:31;;;;;;;;;12.00;11.00;;;;;14.95;100.00;99598.75;6238331;28;96814;-61
2023/10/01 05:55:35;;;;;;;;;10.80;9.00;;;;;15.01;100.00;99605.13;6203344;28;98472;-61
2023/10/01 05:58:39;;;;;;;;;13.40;12.00;;;;;15.02;100.00;99602.16;6238927;28;96248;-61
2023/10/01 06:01:43;;;;;;;;;10.33;10.00;;;;;15.07;100.00;99606.91;6238014;28;96275;-61
2023/10/01 06:04:51;;;;;;;;;10.00;9.60;;;;;15.11;100.00;99608.09;6220748;28;96569;-61
2023/10/01 06:07:55;;;;;;;;;9.33;9.00;;;;;15.14;100.00;99618.50;6236708;28;96343;-62
2023/10/01 06:11:09;;;;;;;;;10.00;10.00;;;;;15.16;100.00;99613.66;6238957;28;96466;-61
2023/10/01 06:14:36;;;;;;;;;10.00;9.00;;;;;15.29;100.00;99626.19;6237046;28;96718;-62
2023/10/01 06:17:42;;;;;;;;;9.00;8.00;;;;;15.37;100.00;99623.97;6232769;28;97186;-61
2023/10/01 06:20:47;;;;;;;;;10.60;9.60;;;;;15.42;100.00;99639.56;6219268;28;98424;-62
2023/10/01 06:23:51;;;;;;;;;9.00;8.40;;;;;15.54;100.00;99638.53;6238029;28;96355;-61
2023/10/01 06:26:56;;;;;;;;;14.00;12.00;;;;;15.54;100.00;99641.25;6238573;28;96458;-61
2023/10/01 06:30:00;;;;;;;;;9.00;9.00;;;;;15.53;100.00;99639.63;6219377;28;96791;-61
2023/10/01 06:33:05;;;;;;;;;8.40;8.40;;;;;15.52;100.00;99634.41;6211652;28;96303;-61
2023/10/01 06:36:21;;;;;;;;;8.00;8.00;;;;;15.60;100.00;99631.31;6237862;28;96920;-61
2023/10/01 06:39:24;;;;;;;;;7.20;7.20;;;;;15.65;100.00;99625.19;6235652;28;96648;-62
2023/10/01 06:42:31;;;;;;;;;10.00;9.00;;;;;15.66;100.00;99624.13;6237898;28;96458;-61
2023/10/01 06:45:40;;;;;;;;;10.67;8.67;;;;;15.72;100.00;99629.44;6235764;28;96834;-61
2023/10/01 06:48:43;;;;;;;;;8.20;7.80;;;;;15.77;100.00;99632.28;6236219;28;96445;-62
2023/10/01 06:51:50;;;;;;;;;10.20;9.80;;;;;15.73;100.00;99636.53;6211126;28;98474;-61
2023/10/01 06:54:55;;;;;;;;;10.00;10.00;;;;;15.83;100.00;99641.38;6237207;28;96470;-61
2023/10/01 06:58:00;;;;;;;;;11.75;11.25;;;;;15.82;100.00;99650.59;6236229;28;96555;-61
2023/10/01 07:01:05;;;;;;;;;13.40;13.00;;;;;15.92;100.00;99650.84;6252593;27;96349;-61
2023/10/01 07:04:09;;;;;;;;;10.60;10.00;;;;;15.89;100.00;99662.16;6237390;28;96247;-61
2023/10/01 07:07:21;;;;;;;;;11.00;11.00;;;;;15.96;100.00;99650.13;6237575;28;96354;-61
2023/10/01 07:10:24;;;;;;;;;11.60;10.00;;;;;16.01;100.00;99646.69;6251474;27;97017;-61
2023/10/01 07:13:29;;;;;;;;;9.00;8.00;;;;;16.04;100.00;99647.03;6218531;28;96756;-61
2023/10/01 07:16:40;;;;;;;;;12.00;12.00;;;;;15.96;100.00;99635.69;6253117;27;96304;-61
2023/10/01 07:19:45;;;;;;;;;11.60;11.60;;;;;16.04;100.00;99643.47;6230325;28;96469;-62
2023/10/01 07:22:50;;;;;;;;;11.00;10.00;;;;;16.11;100.00;99649.63;6232209;28;96416;-61
2023/10/01 07:26:00;;;;;;;;;13.00;12.40;;;;;16.23;100.00;99653.13;6234660;28;96566;-61
2023/10/01 07:29:05;;;;;;;;;12.00;11.00;;;;;16.37;100.00;99646.34;6233006;28;96366;-62
2023/10/01 07:32:12;;;;;;;;;12.75;12.00;;;;;16.44;100.00;99638.91;6233872;28;96732;-68
2023/10/01 07:35:16;;;;;;;;;12.00;10.00;;;;;16.55;100.00;99647.28;6193276;28;96521;-68
2023/10/01 07:38:20;;;;;;;;;15.00;14.00;;;;;16.68;100.00;99647.84;6211069;28;96498;-68
2023/10/01 07:41:26;;;;;;;;;15.50;14.00;;;;;16.83;100.00;99650.03;6226045;28;96554;-68
2023/10/01 07:44:29;;;;;;;;;14.00;13.00;;;;;16.95;100.00;99650.81;6218810;28;96360;-68
2023/10/01 07:47:32;;;;;;;;;12.00;11.00;;;;;17.02;100.00;99651.47;6235775;28;96544;-68
2023/10/01 07:50:41;;;;;;;;;11.80;11.20;;;;;17.11;100.00;99654.59;6235712;27;96383;-68
2023/10/01 07:53:47;;;;;;;;;13.00;10.00;;;;;17.08;100.00;99653.22;6238718;28;96616;-66
2023/10/01 07:56:51;;;;;;;;;13.00;13.00;;;;;17.08;100.00;99647.78;6219822;28;96824;-68
2023/10/01 07:59:55;;;;;;;;;14.25;13.25;;;;;17.08;100.00;99646.94;6250612;27;96493;-68
2023/10/01 08:06:25;;;;;;;;;13.20;12.80;;;;;17.27;100.00;99641.00;6234935;28;96693;-68
2023/10/01 08:09:31;;;;;;;;;10.00;9.00;;;;;17.18;100.00;99626.16;6239377;28;96459;-68
2023/10/01 08:15:58;;;;;;;;;11.00;11.00;;;;;17.50;100.00;99640.03;6237255;27;98713;-67
2023/10/01 08:19:05;;;;;;;;;11.00;10.00;;;;;17.69;100.00;99630.53;6238177;28;97346;-68
2023/10/01 08:22:14;;;;;;;;;15.00;14.40;;;;;17.80;100.00;99631.50;6226921;27;97046;-68
2023/10/01 08:25:19;;;;;;;;;14.80;13.20;;;;;18.08;100.00;99636.03;6231959;28;96609;-68
2023/10/01 08:28:29;;;;;;;;;13.00;13.00;;;;;18.23;100.00;99641.66;6202328;28;97409;-68
2023/10/01 08:35:06;;;;;;;;;10.20;9.20;;;;;18.57;100.00;99635.00;6225404;28;96459;-68
2023/10/01 08:38:15;;;;;;;;;12.60;12.00;;;;;18.73;100.00;99638.75;6218131;28;96830;-67
2023/10/01 08:41:32;;;;;;;;;13.00;12.50;;;;;18.86;100.00;99641.06;6237642;28;97327;-67
2023/10/01 08:44:45;;;;;;;;;11.00;10.00;;;;;19.03;100.00;99636.34;6229272;28;96267;-68
2023/10/01 08:47:48;;;;;;;;;9.20;9.00;;;;;19.11;100.00;99645.97;6230767;28;97628;-68
2023/10/01 08:50:53;;;;;;;;;12.00;9.40;;;;;19.33;100.00;99652.19;6214700;28;96854;-68
2023/10/01 08:53:57;;;;;;;;;11.80;11.20;;;;;19.50;100.00;99652.09;6216969;27;96590;-68
2023/10/01 08:57:15;;;;;;;;;11.00;11.00;;;;;19.62;100.00;99660.94;6238229;27;96421;-68
2023/10/01 09:00:20;;;;;;;;;11.00;10.00;;;;;19.57;100.00;99651.88;6232347;27;96693;-68
2023/10/01 09:03:30;;;;;;;;;8.50;8.50;;;;;19.65;100.00;99659.59;6216133;27;96688;-67
2023/10/01 09:06:58;;;;;;;;;12.60;11.00;;;;;19.79;100.00;99658.06;6230049;27;96796;-68
2023/10/01 09:10:07;;;;;;;;;9.00;9.00;;;;;19.88;100.00;99661.97;6233694;27;97204;-67
2023/10/01 09:13:13;;;;;;;;;9.33;9.33;;;;;20.05;100.00;99670.00;6214525;28;96856;-68
2023/10/01 09:16:19;;;;;;;;;11.00;9.00;;;;;20.57;100.00;99661.81;6216630;28;96577;-68
2023/10/01 09:19:34;;;;;;;;;9.00;9.00;;;;;21.41;100.00;99661.47;6237348;27;96566;-65
2023/10/01 09:22:42;;;;;;;;;8.75;8.00;;;;;22.54;100.00;99650.03;6237860;27;97511;-68
2023/10/01 09:25:59;;;;;;;;;9.00;9.00;;;;;24.00;100.00;99661.94;6235886;28;96579;-68
2023/10/01 09:29:13;;;;;;;;;8.20;8.20;;;;;25.45;100.00;99652.13;6238969;28;96544;-68
2023/10/01 09:32:19;;;;;;;;;9.80;9.80;;;;;25.95;100.00;99644.91;6232856;27;96853;-69
2023/10/01 09:35:38;;;;;;;;;8.00;7.00;;;;;26.74;100.00;99653.84;6237614;28;96246;-68
2023/10/01 09:38:57;;;;;;;;;7.80;7.80;;;;;27.69;100.00;99647.25;6236944;27;96418;-69
2023/10/01 09:42:19;;;;;;;;;10.40;9.00;;;;;27.95;100.00;99636.31;6218217;28;96334;-68
2023/10/01 09:45:34;;;;;;;;;8.80;8.00;;;;;27.48;100.00;99640.53;6210253;28;96748;-66
2023/10/01 09:48:48;;;;;;;;;6.40;6.00;;;;;27.23;100.00;99644.75;6226064;28;96866;-68
2023/10/01 09:51:58;;;;;;;;;9.00;8.00;;;;;26.81;100.00;99637.66;6201509;28;96672;-68
2023/10/01 09:55:08;;;;;;;;;9.00;9.00;;;;;26.31;100.00;99625.72;6250402;27;96571;-69
2023/10/01 09:58:12;;;;;;;;;7.50;7.50;;;;;25.90;100.00;99625.69;6219578;28;96617;-68
2023/10/01 10:01:19;;;;;;;;;10.00;9.40;;;;;25.37;100.00;99616.88;6235823;28;97078;-68
2023/10/01 10:04:24;;;;;;;;;8.40;7.00;;;;;24.92;100.00;99627.50;6242349;27;96836;-64
2023/10/01 10:07:28;;;;;;;;;7.00;6.25;;;;;24.75;100.00;99621.66;6234795;28;96648;-68
2023/10/01 10:10:33;;;;;;;;;7.75;7.00;;;;;24.76;100.00;99623.31;6217221;28;96767;-68
2023/10/01 10:13:46;;;;;;;;;7.00;6.80;;;;;24.57;100.00;99614.22;6233711;27;96536;-68
2023/10/01 10:16:58;;;;;;;;;7.00;6.60;;;;;24.32;100.00;99617.28;6218243;28;96505;-69
2023/10/01 10:23:54;;;;;;;;;8.00;7.40;;;;;23.79;100.00;99625.56;6235631;28;97151;-69
2023/10/01 10:27:00;;;;;;;;;4.00;4.00;;;;;23.66;100.00;99623.47;6216546;28;97411;-68
2023/10/01 10:30:14;;;;;;;;;6.80;5.20;;;;;23.51;100.00;99612.56;6235913;28;96477;-68
2023/10/01 10:33:30;;;;;;;;;6.60;6.40;;;;;23.17;100.00;99612.56;6235567;27;96981;-69
2023/10/01 10:36:34;;;;;;;;;8.80;7.80;;;;;23.22;100.00;99618.00;6231626;27;96465;-69
2023/10/01 10:40:22;;;;;;;;;7.00;7.00;;;;;23.53;100.00;99618.63;6227894;27;96597;-68
2023/10/01 10:43:25;;;;;;;;;7.00;7.00;;;;;23.66;100.00;99623.47;6214986;27;97798;-68
2023/10/01 10:46:28;;;;;;;;;10.00;8.40;;;;;23.67;100.00;99614.91;6242635;27;97265;-68
2023/10/01 10:49:56;;;;;;;;;7.80;6.00;;;;;23.64;100.00;99617.44;6233146;27;97015;-69
2023/10/01 10:52:59;;;;;;;;;6.50;5.50;;;;;23.71;100.00;99624.22;6229791;27;96421;-69
2023/10/01 10:56:06;;;;;;;;;9.00;7.50;;;;;23.82;100.00;99619.44;6217104;28;96354;-69
2023/10/01 10:59:15;;;;;;;;;6.00;6.00;;;;;23.70;100.00;99617.06;6234076;27;97661;-69
2023/10/01 11:02:18;;;;;;;;;7.40;7.40;;;;;23.79;100.00;99616.47;6235006;27;96248;-69
2023/10/01 11:05:24;;;;;;;;;7.00;7.00;;;;;23.90;100.00;99618.81;6236034;27;97355;-69
2023/10/01 11:08:35;;;;;;;;;9.00;9.00;;;;;24.48;100.00;99610.47;6213542;27;98807;-71
2023/10/01 11:11:40;;;;;;;;;6.60;6.00;;;;;25.26;100.00;99601.63;6215338;28;97272;-69
2023/10/01 11:14:56;;;;;;;;;8.60;7.60;;;;;25.92;100.00;99598.56;6236638;28;96401;-68
2023/10/01 11:18:01;;;;;;;;;7.00;6.80;;;;;26.67;100.00;99595.38;6235933;28;96849;-70
2023/10/01 11:21:09;;;;;;;;;8.75;8.75;;;;;26.77;100.00;99600.69;6211102;28;96513;-69
2023/10/01 11:24:14;;;;;;;;;8.80;8.00;;;;;26.77;100.00;99594.34;6231988;27;96536;-69
2023/10/01 11:27:22;;;;;;;;;7.40;6.40;;;;;26.76;100.00;99595.47;6239542;28;96502;-69
2023/10/01 11:30:34;;;;;;;;;7.00;7.00;;;;;26.48;100.00;99601.03;6221562;28;96863;-69
2023/10/01 11:33:38;;;;;;;;;6.00;6.00;;;;;26.32;100.00;99598.91;6220962;28;98761;-69
2023/10/01 11:36:43;;;;;;;;;8.00;8.00;;;;;26.13;100.00;99594.28;6223802;28;96696;-69
2023/10/01 11:39:52;;;;;;;;;6.40;6.40;;;;;25.98;100.00;99590.97;6222082;28;96848;-69
2023/10/01 11:43:05;;;;;;;;;7.60;6.00;;;;;25.81;100.00;99586.03;6220088;28;96811;-68
2023/10/01 11:46:23;;;;;;;;;8.40;8.40;;;;;26.11;100.00;99584.63;6239142;27;97352;-70
2023/10/01 11:49:34;;;;;;;;;9.60;9.40;;;;;26.58;100.00;99589.78;6241126;28;96302;-69
2023/10/01 11:52:42;;;;;;;;;7.75;6.75;;;;;27.21;100.00;99588.06;6243707;27;98453;-69
2023/10/01 11:55:45;;;;;;;;;6.20;6.20;;;;;27.57;100.00;99580.50;6264124;27;96840;-69
2023/10/01 11:58:49;;;;;;;;;6.50;6.50;;;;;27.76;100.00;99580.31;6240201;27;96596;-67
2023/10/01 12:01:54;;;;;;;;;7.75;6.75;;;;;27.56;100.00;99568.59;6242676;27;96500;-70
2023/10/01 12:05:00;;;;;;;;;6.00;6.00;;;;;27.30;100.00;99575.09;6230262;27;96219;-68
2023/10/01 12:08:06;;;;;;;;;9.00;8.00;;;;;26.92;100.00;99571.88;6248680;27;96313;-70
2023/10/01 12:11:26;;;;;;;;;7.75;6.00;;;;;26.70;100.00;99562.38;6246067;27;96327;-69
2023/10/01 12:14:32;;;;;;;;;6.00;5.80;;;;;26.58;100.00;99559.34;6248677;27;96764;-69
2023/10/01 12:17:35;;;;;;;;;6.00;6.00;;;;;26.55;100.00;99562.72;6235186;27;96899;-70
2023/10/01 12:20:39;;;;;;;;;9.40;9.00;;;;;26.60;100.00;99564.53;6252269;27;96577;-68
2023/10/01 12:23:49;;;;;;;;;6.50;6.00;;;;;26.52;100.00;99560.59;6226465;27;99130;-69
2023/10/01 12:26:52;;;;;;;;;9.00;6.00;;;;;26.50;100.00;99554.53;6231022;27;97275;-69
2023/10/01 12:29:55;;;;;;;;;5.80;5.00;;;;;26.85;100.00;99552.91;6228963;27;96830;-69
2023/10/01 12:33:02;;;;;;;;;6.40;5.00;;;;;27.17;97.81;99558.22;6240763;27;96686;-70
2023/10/01 12:36:11;;;;;;;;;6.00;5.00;;;;;27.00;96.27;99558.09;6222155;28;97032;-68
2023/10/01 12:39:27;;;;;;;;;7.00;6.00;;;;;26.83;97.95;99557.91;6236171;28;96670;-69
2023/10/01 12:42:30;;;;;;;;;7.00;6.00;;;;;26.62;98.10;99562.31;6240669;27;96544;-69
2023/10/01 12:45:33;;;;;;;;;6.00;6.00;;;;;26.32;98.99;99557.44;6234482;28;96308;-69
2023/10/01 12:48:37;;;;;;;;;7.00;6.00;;;;;26.13;99.73;99552.00;6238863;28;96280;-69
2023/10/01 12:51:48;;;;;;;;;6.60;6.00;;;;;25.81;100.00;99553.72;6236395;27;97075;-69
2023/10/01 12:55:00;;;;;;;;;9.00;7.00;;;;;25.71;100.00;99553.91;6260447;27;96925;-69
2023/10/01 12:58:03;;;;;;;;;8.00;6.75;;;;;25.69;100.00;99553.41;6242486;27;96441;-69
2023/10/01 13:01:23;;;;;;;;;8.00;8.00;;;;;25.77;100.00;99554.63;6257251;27;97634;-69
2023/10/01 13:04:29;;;;;;;;;6.60;6.00;;;;;25.70;100.00;99541.25;6258679;27;96467;-69
2023/10/01 13:07:35;;;;;;;;;5.25;5.00;;;;;25.67;100.00;99541.84;6240213;27;96628;-69
2023/10/01 13:10:50;;;;;;;;;5.60;5.00;;;;;25.59;100.00;99552.78;6226485;28;98347;-69
2023/10/01 13:13:54;;;;;;;;;4.50;4.00;;;;;25.54;100.00;99547.31;6234486;28;96377;-69
2023/10/01 13:17:00;;;;;;;;;7.00;6.00;;;;;25.36;100.00;99557.31;6215551;28;96776;-68
2023/10/01 13:20:18;;;;;;;;;5.00;4.00;;;;;25.16;100.00;99549.38;6239021;28;96393;-69
2023/10/01 13:23:24;;;;;;;;;7.00;5.00;;;;;24.95;100.00;99546.94;6220156;28;96821;-69
2023/10/01 13:26:32;;;;;;;;;6.00;5.00;;;;;24.80;100.00;99540.78;6239096;28;96659;-68
2023/10/01 13:29:35;;;;;;;;;6.00;6.00;;;;;24.78;100.00;99540.25;6220226;28;97259;-69
2023/10/01 13:32:57;;;;;;;;;6.00;6.00;;;;;24.73;100.00;99540.38;6237395;27;96859;-69
2023/10/01 13:36:12;;;;;;;;;8.00;8.00;;;;;24.72;100.00;99527.69;6214736;28;98510;-69
2023/10/01 13:39:25;;;;;;;;;4.25;4.00;;;;;24.72;100.00;99523.00;6221198;28;96377;-69
2023/10/01 14:09:17;;;;;;;;;5.00;4.80;;;;;25.16;100.00;99483.16;6236579;28;98493;-69
2023/10/01 14:15:41;;;;;;;;;6.20;6.00;;;;;24.88;100.00;99484.97;6236167;28;96494;-69
2023/10/01 14:18:53;;;;;;;;;7.00;6.00;;;;;24.59;100.00;99490.66;6236464;28;96404;-68
2023/10/01 14:21:58;;;;;;;;;4.00;4.00;;;;;24.48;100.00;99495.50;6236585;28;96630;-69
2023/10/01 14:25:20;;;;;;;;;6.60;6.00;;;;;24.31;100.00;99506.22;6235939;28;96496;-69
2023/10/01 14:28:25;;;;;;;;;5.60;5.00;;;;;24.11;100.00;99507.28;6236395;28;96832;-68
2023/10/01 14:31:49;;;;;;;;;8.00;6.50;;;;;23.92;100.00;99497.34;6235998;28;96426;-68
2023/10/01 14:34:53;;;;;;;;;6.60;6.40;;;;;23.72;100.00;99498.41;6219063;28;96695;-69
2023/10/01 14:37:56;;;;;;;;;7.40;7.00;;;;;23.44;100.00;99502.00;6263997;27;96316;-69
2023/10/01 14:40:59;;;;;;;;;5.60;5.60;;;;;23.26;100.00;99496.09;6238437;28;96471;-69
2023/10/01 14:44:04;;;;;;;;;5.00;5.00;;;;;22.99;100.00;99495.81;6238083;28;96616;-69
2023/10/01 14:47:17;;;;;;;;;6.00;6.00;;;;;22.92;100.00;99495.31;6236981;28;96689;-69
2023/10/01 14:50:21;;;;;;;;;6.25;6.00;;;;;22.84;100.00;99493.19;6238220;27;96794;-69
2023/10/01 14:53:24;;;;;;;;;4.75;4.00;;;;;22.70;100.00;99494.91;6238064;28;96791;-69
2023/10/01 14:56:31;;;;;;;;;6.00;4.20;;;;;22.68;100.00;99494.38;6236208;28;98889;-69
2023/10/01 14:59:34;;;;;;;;;6.60;6.60;;;;;22.61;100.00;99489.22;6219242;28;96748;-69
2023/10/01 15:02:40;;;;;;;;;6.00;5.00;;;;;22.59;100.00;99487.84;6237603;28;96351;-69
2023/10/01 15:05:43;;;;;;;;;7.75;7.00;;;;;22.49;100.00;99488.72;6235547;28;96777;-69
2023/10/01 15:08:47;;;;;;;;;8.00;8.00;;;;;22.37;100.00;99480.88;6237066;28;96411;-69
2023/10/01 15:11:54;;;;;;;;;7.40;6.40;;;;;22.30;100.00;99487.75;6237597;28;96363;-69
2023/10/01 15:14:58;;;;;;;;;7.25;7.25;;;;;22.19;100.00;99488.91;6277453;27;96519;-69